Time;durP1;ratioP1;P1;durP2;ratioP2;P2;SDS_P1;SDS_P2;PMS_P1;PMS_P2;Temp;Humidity;BMP_temperature;BMP_pressure;BME280_temperature;BME280_humidity;BME280_pressure;Samples;Min_cycle;Max_cycle;Signal;HPM_P1;HPM_P2
2022/05/04 00:01:33;;;;;;;0.60;0.50;;;9.70;99.90;;;;;;5108128;28;21239;-85
2022/05/04 00:04:03;;;;;;;0.50;0.47;;;9.70;99.90;;;;;;5108167;28;21184;-85
2022/05/04 00:06:30;;;;;;;0.30;0.20;;;9.70;99.90;;;;;;5107371;28;20623;-85
2022/05/04 00:08:57;;;;;;;0.60;0.60;;;9.70;99.90;;;;;;5107544;28;20639;-84
2022/05/04 00:11:26;;;;;;;2.80;0.90;;;9.70;99.90;;;;;;5107867;28;21169;-85
2022/05/04 00:13:54;;;;;;;0.40;0.40;;;9.70;99.90;;;;;;5108763;28;21219;-84
2022/05/04 00:16:23;;;;;;;0.30;0.20;;;9.70;99.90;;;;;;5107026;28;21276;-84
2022/05/04 00:18:50;;;;;;;0.30;0.20;;;9.70;99.90;;;;;;5108376;28;20599;-84
2022/05/04 00:21:17;;;;;;;0.60;0.37;;;9.70;99.90;;;;;;5107624;28;20982;-85
2022/05/04 00:23:46;;;;;;;0.60;0.53;;;9.60;99.90;;;;;;5116003;28;20622;-85
2022/05/04 00:26:13;;;;;;;0.30;0.20;;;9.70;99.90;;;;;;5121471;28;21005;-85
2022/05/04 00:28:43;;;;;;;0.40;0.27;;;9.70;99.90;;;;;;5108150;28;20611;-85
2022/05/04 00:31:11;;;;;;;0.73;0.73;;;9.60;99.90;;;;;;5108028;28;20631;-85
2022/05/04 00:33:39;;;;;;;1.03;0.73;;;9.60;99.90;;;;;;5107846;28;20619;-84
2022/05/04 00:36:06;;;;;;;0.63;0.63;;;9.60;99.90;;;;;;5107477;28;21169;-85
2022/05/04 00:38:33;;;;;;;0.57;0.57;;;9.50;99.90;;;;;;5122554;27;20634;-85
2022/05/04 00:41:00;;;;;;;1.03;0.93;;;9.50;99.90;;;;;;5122215;27;20726;-85
2022/05/04 00:43:27;;;;;;;1.27;0.53;;;9.50;99.90;;;;;;5111951;28;20720;-85
2022/05/04 00:45:55;;;;;;;0.77;0.50;;;9.40;99.90;;;;;;5111823;28;20745;-84
2022/05/04 00:48:22;;;;;;;0.30;0.20;;;9.40;99.90;;;;;;5111247;28;20630;-85
2022/05/04 00:50:51;;;;;;;0.60;0.60;;;9.40;99.90;;;;;;5111808;28;20596;-84
2022/05/04 00:53:20;;;;;;;1.23;1.17;;;9.40;99.90;;;;;;5111653;28;20213;-84
2022/05/04 00:55:47;;;;;;;0.37;0.30;;;9.40;99.90;;;;;;5111115;28;21216;-84
2022/05/04 01:01:03;;;;;;;3.58;1.58;;;9.20;99.90;;;;;;5111620;28;21195;-85
2022/05/04 01:03:30;;;;;;;0.60;0.60;;;9.10;99.90;;;;;;5111949;28;20213;-85
2022/05/04 01:05:57;;;;;;;0.90;0.67;;;9.00;99.90;;;;;;5120572;27;20626;-85
2022/05/04 01:08:24;;;;;;;0.30;0.30;;;9.10;99.90;;;;;;5114591;27;20635;-84
2022/05/04 01:10:51;;;;;;;0.70;0.70;;;9.10;99.90;;;;;;5111932;28;20206;-84
2022/05/04 01:13:20;;;;;;;0.60;0.60;;;9.20;99.90;;;;;;5112043;28;20206;-85
2022/05/04 01:15:49;;;;;;;1.20;0.73;;;9.20;99.90;;;;;;5111174;28;20213;-85
2022/05/04 01:18:18;;;;;;;0.77;0.77;;;9.20;99.90;;;;;;5112135;28;20233;-85
2022/05/04 01:20:45;;;;;;;1.53;1.27;;;9.30;99.90;;;;;;5112423;28;20198;-85
2022/05/04 01:23:14;;;;;;;0.40;0.40;;;9.20;99.90;;;;;;5111656;28;20627;-85
2022/05/04 01:25:42;;;;;;;0.83;0.83;;;9.30;99.90;;;;;;5111201;28;21039;-85
2022/05/04 01:28:09;;;;;;;1.70;1.47;;;9.20;99.90;;;;;;5112076;28;21084;-84
2022/05/04 01:30:36;;;;;;;0.40;0.37;;;9.30;99.90;;;;;;5112108;28;20610;-85
2022/05/04 01:33:04;;;;;;;0.60;0.60;;;9.20;99.90;;;;;;5111306;28;20622;-85
2022/05/04 01:35:31;;;;;;;0.30;0.30;;;9.20;99.90;;;;;;5111303;28;20607;-85
2022/05/04 01:37:59;;;;;;;2.00;0.60;;;9.20;99.90;;;;;;5111388;28;21248;-85
2022/05/04 01:40:27;;;;;;;0.30;0.20;;;9.10;99.90;;;;;;5116887;27;20761;-85
2022/05/04 01:42:55;;;;;;;0.30;0.30;;;9.10;99.90;;;;;;5113434;27;21176;-85
2022/05/04 01:45:23;;;;;;;0.40;0.30;;;9.20;99.90;;;;;;5111245;28;20650;-84
2022/05/04 01:47:50;;;;;;;4.60;1.40;;;9.20;99.90;;;;;;5111305;28;20703;-85
2022/05/04 01:50:18;;;;;;;0.53;0.53;;;9.20;99.90;;;;;;5111700;28;20616;-85
2022/05/04 01:52:45;;;;;;;0.70;0.40;;;9.10;99.90;;;;;;5111568;28;20619;-84
2022/05/04 01:55:12;;;;;;;0.40;0.30;;;9.20;99.90;;;;;;5110748;28;20652;-85
2022/05/04 01:57:40;;;;;;;0.30;0.30;;;9.20;99.90;;;;;;5109663;28;20675;-84
2022/05/04 02:00:08;;;;;;;0.30;0.20;;;9.20;99.90;;;;;;5111882;28;20623;-85
2022/05/04 02:02:36;;;;;;;0.30;0.20;;;9.20;99.90;;;;;;5110966;28;20616;-85
2022/05/04 02:05:04;;;;;;;1.30;0.87;;;9.20;99.90;;;;;;5111194;28;20673;-84
2022/05/04 02:07:32;;;;;;;0.30;0.20;;;9.20;99.90;;;;;;5111059;28;20616;-85
2022/05/04 02:09:59;;;;;;;0.53;0.53;;;9.20;99.90;;;;;;5110822;28;20635;-85
2022/05/04 02:12:28;;;;;;;0.30;0.30;;;9.20;99.90;;;;;;5110593;28;20623;-85
2022/05/04 02:14:56;;;;;;;0.30;0.20;;;9.30;99.90;;;;;;5111826;28;20633;-85
2022/05/04 02:17:23;;;;;;;0.70;0.57;;;9.30;99.90;;;;;;5110041;28;20678;-85
2022/05/04 02:19:50;;;;;;;0.30;0.20;;;9.30;99.90;;;;;;5111458;28;20603;-85
2022/05/04 02:22:18;;;;;;;0.70;0.70;;;9.30;99.90;;;;;;5110489;28;20624;-85
2022/05/04 02:24:45;;;;;;;0.40;0.40;;;9.30;99.90;;;;;;5110905;28;20631;-85
2022/05/04 02:27:11;;;;;;;0.50;0.50;;;9.30;99.90;;;;;;5109868;28;20280;-85
2022/05/04 02:29:38;;;;;;;0.60;0.33;;;9.40;99.90;;;;;;5110239;28;20667;-85
2022/05/04 02:32:08;;;;;;;40.97;1.40;;;9.20;99.90;;;;;;5110424;28;20651;-85
2022/05/04 02:37:54;;;;;;;0.70;0.70;;;9.40;99.90;;;;;;5110143;28;20722;-85
2022/05/04 02:40:07;;;;;;;0.87;0.83;;;9.50;99.90;;;;;;5112523;27;20604;-85
2022/05/04 02:42:34;;;;;;;0.40;0.27;;;9.50;99.90;;;;;;5111648;27;21290;-85
2022/05/04 02:45:02;;;;;;;0.30;0.30;;;9.50;99.90;;;;;;5109946;28;20627;-84
2022/05/04 02:47:30;;;;;;;1.53;1.13;;;9.50;99.90;;;;;;5109673;28;20984;-85
2022/05/04 02:49:57;;;;;;;1.13;0.70;;;9.50;99.90;;;;;;5109988;28;20993;-85
2022/05/04 02:52:24;;;;;;;0.63;0.60;;;9.50;99.90;;;;;;5110028;28;21205;-85
2022/05/04 02:54:51;;;;;;;4.20;2.73;;;9.40;99.90;;;;;;5110141;28;20647;-85
2022/05/04 02:57:18;;;;;;;0.67;0.67;;;9.50;99.90;;;;;;5108244;28;20766;-85
2022/05/04 02:59:44;;;;;;;0.80;0.80;;;9.50;99.90;;;;;;5108595;28;21177;-84
2022/05/04 03:02:30;;;;;;;0.50;0.50;;;9.60;99.90;;;;;;5109378;28;21248;-85
2022/05/04 03:04:59;;;;;;;0.90;0.80;;;9.60;99.90;;;;;;5109608;28;21172;-84
2022/05/04 03:07:27;;;;;;;0.70;0.70;;;9.70;99.90;;;;;;5108466;28;20681;-85
2022/05/04 03:09:54;;;;;;;0.50;0.30;;;9.70;99.90;;;;;;5109746;28;20627;-84
2022/05/04 03:12:21;;;;;;;1.07;0.93;;;9.70;99.90;;;;;;5109131;28;20629;-85
2022/05/04 03:14:48;;;;;;;1.53;0.80;;;9.80;99.90;;;;;;5109436;28;20631;-85
2022/05/04 03:17:15;;;;;;;0.80;0.80;;;9.80;99.90;;;;;;5109131;28;20708;-85
2022/05/04 03:19:42;;;;;;;0.30;0.23;;;9.80;99.90;;;;;;5109837;28;20672;-85
2022/05/04 03:22:11;;;;;;;0.60;0.53;;;9.80;99.90;;;;;;5109586;28;20616;-85
2022/05/04 03:24:38;;;;;;;0.30;0.20;;;9.80;99.90;;;;;;5109856;28;20692;-85
2022/05/04 03:27:06;;;;;;;0.67;0.67;;;9.80;99.90;;;;;;5108528;28;20608;-85
2022/05/04 03:29:33;;;;;;;1.03;0.57;;;9.80;99.90;;;;;;5109508;28;20688;-85
2022/05/04 03:32:00;;;;;;;1.23;1.13;;;9.70;99.90;;;;;;5109666;28;20627;-85
2022/05/04 03:34:27;;;;;;;1.10;1.10;;;9.80;99.90;;;;;;5109078;28;20716;-85
2022/05/04 03:36:54;;;;;;;0.73;0.70;;;9.80;99.90;;;;;;5108879;28;20746;-85
2022/05/04 03:39:22;;;;;;;0.50;0.50;;;9.80;99.90;;;;;;5108850;28;21271;-85
2022/05/04 03:41:49;;;;;;;0.60;0.60;;;9.90;99.90;;;;;;5108909;28;20631;-85
2022/05/04 03:44:16;;;;;;;1.27;0.87;;;9.90;99.90;;;;;;5109290;28;20619;-84
2022/05/04 03:46:45;;;;;;;1.40;0.87;;;9.90;99.90;;;;;;5108339;28;21073;-84
2022/05/04 03:49:13;;;;;;;0.80;0.70;;;9.90;99.90;;;;;;5109331;28;20615;-85
2022/05/04 03:51:41;;;;;;;1.17;0.70;;;9.90;99.90;;;;;;5108683;28;20639;-85
2022/05/04 03:54:09;;;;;;;1.47;1.37;;;9.90;99.90;;;;;;5109257;28;21024;-85
2022/05/04 03:56:38;;;;;;;0.60;0.40;;;9.90;99.90;;;;;;5106986;28;21228;-85
2022/05/04 03:59:05;;;;;;;0.67;0.40;;;9.90;99.90;;;;;;5109327;28;20723;-85
2022/05/04 04:01:33;;;;;;;0.37;0.33;;;9.90;99.90;;;;;;5108629;28;20964;-85
2022/05/04 04:04:00;;;;;;;0.43;0.43;;;10.00;99.90;;;;;;5106600;28;20658;-85
2022/05/04 04:06:27;;;;;;;1.17;0.90;;;9.90;99.90;;;;;;5104112;28;21053;-85
2022/05/04 04:08:54;;;;;;;1.07;0.70;;;10.00;99.90;;;;;;5104926;28;20662;-85
2022/05/04 04:11:21;;;;;;;0.70;0.70;;;10.00;99.90;;;;;;5108280;28;21212;-85
2022/05/04 04:13:50;;;;;;;0.40;0.40;;;10.00;99.90;;;;;;5104687;28;20620;-85
2022/05/04 04:16:17;;;;;;;0.83;0.73;;;10.00;99.90;;;;;;5102147;28;21207;-85
2022/05/04 04:18:44;;;;;;;0.70;0.70;;;10.00;99.90;;;;;;5102332;28;20654;-84
2022/05/04 04:23:56;;;;;;;0.50;0.30;;;10.10;99.90;;;;;;5113912;28;20710;-84
2022/05/04 04:26:23;;;;;;;1.10;0.83;;;10.10;99.90;;;;;;5127586;28;20611;-85
2022/05/04 04:28:51;;;;;;;0.30;0.20;;;10.20;99.90;;;;;;5103560;28;20627;-85
2022/05/04 04:31:19;;;;;;;0.87;0.77;;;10.20;99.90;;;;;;5103725;28;20707;-84
2022/05/04 04:33:46;;;;;;;0.30;0.20;;;10.20;99.90;;;;;;5104006;28;20615;-84
2022/05/04 04:36:12;;;;;;;0.77;0.77;;;10.20;99.90;;;;;;5103590;28;20624;-85
2022/05/04 04:38:39;;;;;;;0.40;0.40;;;10.20;99.90;;;;;;5103372;28;20749;-84
2022/05/04 04:41:06;;;;;;;1.03;0.93;;;10.30;99.90;;;;;;5105060;28;21503;-85
2022/05/04 04:43:33;;;;;;;0.43;0.40;;;10.30;99.90;;;;;;5103116;28;21278;-85
2022/05/04 04:46:01;;;;;;;0.47;0.40;;;10.30;99.90;;;;;;5103566;28;20608;-85
2022/05/04 04:48:28;;;;;;;0.80;0.50;;;10.30;99.90;;;;;;5105036;28;20639;-84
2022/05/04 04:50:55;;;;;;;0.53;0.53;;;10.40;99.90;;;;;;5105232;28;20724;-84
2022/05/04 04:53:22;;;;;;;1.37;0.80;;;10.40;99.90;;;;;;5101420;28;21869;-85
2022/05/04 04:55:49;;;;;;;0.30;0.20;;;10.40;99.90;;;;;;5104344;28;20623;-85
2022/05/04 04:58:16;;;;;;;0.40;0.30;;;10.40;99.90;;;;;;5103138;28;20713;-86
2022/05/04 05:00:43;;;;;;;1.07;1.03;;;10.50;99.90;;;;;;5102612;28;21031;-85
2022/05/04 05:03:12;;;;;;;1.60;1.50;;;10.60;99.90;;;;;;5103999;28;20616;-85
2022/05/04 05:05:41;;;;;;;0.83;0.83;;;10.50;99.90;;;;;;5108009;28;20661;-84
2022/05/04 05:08:10;;;;;;;0.47;0.37;;;10.60;99.90;;;;;;5108034;28;20616;-84
2022/05/04 05:10:38;;;;;;;0.70;0.70;;;10.70;99.90;;;;;;5107650;28;20614;-84
2022/05/04 05:13:05;;;;;;;0.50;0.50;;;10.80;99.90;;;;;;5105619;28;20612;-84
2022/05/04 05:18:20;;;;;;;0.40;0.30;;;10.80;99.90;;;;;;5103176;28;21541;-85
2022/05/04 05:20:47;;;;;;;1.07;0.57;;;10.90;99.90;;;;;;5102241;28;20661;-84
2022/05/04 05:23:14;;;;;;;0.50;0.30;;;10.90;99.90;;;;;;5102510;28;20693;-84
2022/05/04 05:25:41;;;;;;;0.57;0.57;;;10.90;99.90;;;;;;5106373;28;20623;-84
2022/05/04 05:28:09;;;;;;;1.80;1.50;;;10.80;99.90;;;;;;5105230;28;20723;-85
2022/05/04 05:30:36;;;;;;;1.47;1.37;;;10.90;99.90;;;;;;5106391;28;20223;-84
2022/05/04 05:33:03;;;;;;;2.07;1.60;;;10.90;99.90;;;;;;5106372;28;20607;-84
2022/05/04 05:35:31;;;;;;;0.90;0.90;;;10.90;99.90;;;;;;5106270;28;21436;-85
2022/05/04 05:37:58;;;;;;;0.33;0.33;;;10.90;99.90;;;;;;5105506;28;20653;-84
2022/05/04 05:40:26;;;;;;;2.10;1.93;;;11.00;99.90;;;;;;5107348;28;21242;-85
2022/05/04 05:42:53;;;;;;;0.67;0.67;;;11.10;99.90;;;;;;5106134;28;21037;-84
2022/05/04 05:45:20;;;;;;;1.00;0.90;;;11.10;99.90;;;;;;5104655;28;20658;-84
2022/05/04 05:47:47;;;;;;;1.00;0.83;;;11.10;99.90;;;;;;5105024;28;20714;-84
2022/05/04 05:50:14;;;;;;;1.00;1.00;;;11.20;99.90;;;;;;5103821;28;20728;-84
2022/05/04 05:52:42;;;;;;;0.40;0.40;;;11.20;99.90;;;;;;5103863;28;20633;-84
2022/05/04 05:55:10;;;;;;;1.07;0.83;;;11.30;99.90;;;;;;5102137;28;20691;-85
2022/05/04 05:57:37;;;;;;;0.70;0.70;;;11.40;99.90;;;;;;5104274;28;20655;-85
2022/05/04 06:00:05;;;;;;;0.40;0.40;;;11.40;99.90;;;;;;5104658;28;20623;-84
2022/05/04 06:02:33;;;;;;;2.00;0.93;;;11.50;99.90;;;;;;5105223;28;20713;-85
2022/05/04 06:05:00;;;;;;;0.37;0.37;;;11.60;99.90;;;;;;5108159;27;20658;-85
2022/05/04 06:07:27;;;;;;;1.03;0.93;;;11.60;99.90;;;;;;5103394;28;20639;-85
2022/05/04 06:09:56;;;;;;;0.30;0.20;;;11.60;99.90;;;;;;5106242;28;20734;-84
2022/05/04 06:12:22;;;;;;;0.97;0.57;;;11.70;99.90;;;;;;5106855;28;21247;-85
2022/05/04 06:14:49;;;;;;;1.37;1.00;;;11.70;99.90;;;;;;5105292;28;20647;-85
2022/05/04 06:17:16;;;;;;;0.60;0.60;;;11.70;99.90;;;;;;5105194;28;21049;-84
2022/05/04 06:19:43;;;;;;;2.97;1.70;;;11.80;99.90;;;;;;5105262;28;21198;-84
2022/05/04 06:22:10;;;;;;;0.40;0.33;;;11.80;99.90;;;;;;5105195;28;21012;-85
2022/05/04 06:24:37;;;;;;;0.80;0.80;;;11.80;99.90;;;;;;5106531;28;20746;-84
2022/05/04 06:27:06;;;;;;;0.70;0.57;;;11.90;99.90;;;;;;5106965;28;20627;-85
2022/05/04 06:35:04;;;;;;;1.23;0.53;;;12.00;99.90;;;;;;5105127;28;20614;-85
2022/05/04 06:37:31;;;;;;;0.50;0.40;;;12.00;99.90;;;;;;5103988;28;20746;-84
2022/05/04 06:39:58;;;;;;;0.87;0.80;;;12.00;99.90;;;;;;5105165;28;20725;-85
2022/05/04 06:42:27;;;;;;;1.40;1.27;;;12.10;99.90;;;;;;5104907;28;20633;-84
2022/05/04 06:44:54;;;;;;;0.80;0.77;;;12.20;99.90;;;;;;5103701;28;21241;-85
2022/05/04 06:47:20;;;;;;;0.60;0.60;;;12.20;99.90;;;;;;5104254;28;21293;-84
2022/05/04 06:49:47;;;;;;;0.40;0.40;;;12.20;99.90;;;;;;5104413;28;21086;-84
2022/05/04 06:52:15;;;;;;;1.03;0.70;;;12.20;99.90;;;;;;5103717;28;21394;-85
2022/05/04 06:54:43;;;;;;;0.73;0.73;;;12.20;99.90;;;;;;5104395;28;20627;-84
2022/05/04 06:57:10;;;;;;;0.47;0.47;;;12.20;99.90;;;;;;5104050;28;20624;-84
2022/05/04 06:59:38;;;;;;;1.33;1.23;;;12.30;99.90;;;;;;5104744;28;20655;-85
2022/05/04 07:02:06;;;;;;;0.50;0.43;;;12.30;99.90;;;;;;5103870;28;21317;-85
2022/05/04 07:04:32;;;;;;;0.63;0.33;;;12.40;99.90;;;;;;5106575;28;20627;-85
2022/05/04 07:07:00;;;;;;;0.70;0.70;;;12.40;99.90;;;;;;5104273;28;20720;-85
2022/05/04 07:09:27;;;;;;;1.70;0.83;;;12.40;99.90;;;;;;5104221;28;20721;-85
2022/05/04 07:11:54;;;;;;;0.93;0.87;;;12.50;99.90;;;;;;5104790;28;20620;-85
2022/05/04 07:14:21;;;;;;;0.97;0.97;;;12.40;99.90;;;;;;5106667;28;20682;-85
2022/05/04 07:16:49;;;;;;;1.13;0.57;;;12.50;99.90;;;;;;5104874;28;20628;-86
2022/05/04 07:19:16;;;;;;;0.70;0.43;;;12.50;99.90;;;;;;5103603;28;20697;-84
2022/05/04 07:21:43;;;;;;;0.87;0.77;;;12.50;99.90;;;;;;5104539;28;21161;-84
2022/05/04 07:24:11;;;;;;;0.73;0.73;;;12.60;99.90;;;;;;5103579;28;21036;-85
2022/05/04 07:26:38;;;;;;;0.40;0.30;;;12.60;99.90;;;;;;5105266;28;20631;-85
2022/05/04 07:29:05;;;;;;;0.30;0.30;;;12.70;99.90;;;;;;5102770;28;20633;-85
2022/05/04 07:31:32;;;;;;;0.63;0.63;;;12.70;99.90;;;;;;5103756;28;20735;-85
2022/05/04 07:34:00;;;;;;;2.30;1.20;;;12.80;99.90;;;;;;5102648;28;20731;-85
2022/05/04 07:36:27;;;;;;;0.30;0.23;;;12.80;99.90;;;;;;5103577;28;20651;-85
2022/05/04 07:38:54;;;;;;;0.90;0.90;;;13.00;99.90;;;;;;5103026;28;21331;-85
2022/05/04 07:44:05;;;;;;;0.30;0.30;;;12.90;99.90;;;;;;5102628;28;20613;-85
2022/05/04 07:46:33;;;;;;;0.60;0.40;;;12.90;99.90;;;;;;5101480;28;20613;-84
2022/05/04 07:49:01;;;;;;;2.33;1.33;;;12.90;99.90;;;;;;5101655;28;20614;-85
2022/05/04 07:51:28;;;;;;;0.37;0.37;;;12.90;99.90;;;;;;5102239;28;20616;-85
2022/05/04 07:53:55;;;;;;;0.60;0.50;;;12.80;99.90;;;;;;5103506;28;20701;-86
2022/05/04 07:56:22;;;;;;;0.77;0.60;;;12.90;99.90;;;;;;5104315;28;20620;-85
2022/05/04 07:58:52;;;;;;;1.47;0.87;;;13.00;99.90;;;;;;5103248;28;20644;-85
2022/05/04 08:04:21;;;;;;;2.10;0.60;;;13.00;99.90;;;;;;5101940;28;20651;-85
2022/05/04 08:06:48;;;;;;;0.40;0.33;;;13.00;99.90;;;;;;5102780;28;20730;-84
2022/05/04 08:09:15;;;;;;;0.67;0.50;;;13.20;99.90;;;;;;5103398;28;20741;-85
2022/05/04 08:11:43;;;;;;;1.70;1.53;;;13.20;99.90;;;;;;5103764;28;20629;-84
2022/05/04 08:14:10;;;;;;;0.93;0.83;;;13.30;99.90;;;;;;5104223;28;20618;-84
2022/05/04 08:16:37;;;;;;;0.70;0.70;;;13.30;99.90;;;;;;5101901;28;20679;-84
2022/05/04 08:19:06;;;;;;;0.30;0.20;;;13.40;99.90;;;;;;5102700;28;20655;-85
2022/05/04 08:21:33;;;;;;;1.90;1.80;;;13.40;99.90;;;;;;5103333;28;20661;-86
2022/05/04 08:24:01;;;;;;;1.67;1.57;;;13.40;99.90;;;;;;5105786;28;20662;-85
2022/05/04 08:26:28;;;;;;;0.63;0.63;;;13.30;99.90;;;;;;5107884;28;20619;-85
2022/05/04 08:28:55;;;;;;;0.63;0.60;;;13.20;99.90;;;;;;5106056;28;20722;-85
2022/05/04 08:31:22;;;;;;;0.93;0.93;;;13.10;99.90;;;;;;5103132;28;20632;-87
2022/05/04 08:33:50;;;;;;;0.60;0.40;;;13.20;99.90;;;;;;5103269;28;20671;-88
2022/05/04 08:36:18;;;;;;;0.60;0.60;;;13.10;99.90;;;;;;5094824;28;20619;-87
2022/05/04 08:38:45;;;;;;;1.20;1.10;;;13.00;99.90;;;;;;5103114;28;20687;-86
2022/05/04 08:41:12;;;;;;;0.37;0.23;;;12.90;99.90;;;;;;5104444;28;20714;-86
2022/05/04 08:43:40;;;;;;;1.90;0.60;;;12.80;99.90;;;;;;5103339;28;20627;-87
2022/05/04 08:46:12;;;;;;;1.20;0.70;;;12.80;99.90;;;;;;5102858;28;20620;-85
2022/05/04 08:48:40;;;;;;;0.30;0.20;;;12.70;99.90;;;;;;5103015;28;21286;-86
2022/05/04 08:51:09;;;;;;;0.30;0.10;;;12.60;99.90;;;;;;5102670;28;20622;-86
2022/05/04 08:53:40;;;;;;;0.50;0.50;;;12.50;99.90;;;;;;5101959;28;20653;-86
2022/05/04 08:56:07;;;;;;;0.43;0.37;;;12.60;99.90;;;;;;5104064;28;20677;-85
2022/05/04 08:58:37;;;;;;;0.30;0.20;;;12.60;99.90;;;;;;5104015;28;20741;-86
2022/05/04 09:01:04;;;;;;;1.17;0.70;;;12.60;99.90;;;;;;5106571;28;21244;-86
2022/05/04 09:03:32;;;;;;;0.30;0.27;;;12.60;99.90;;;;;;5106510;28;20612;-86
2022/05/04 09:06:00;;;;;;;0.83;0.83;;;12.60;99.90;;;;;;5106699;27;20620;-85
2022/05/04 09:08:27;;;;;;;1.60;1.47;;;12.60;99.90;;;;;;5106818;28;20976;-87
2022/05/04 09:10:55;;;;;;;2.53;1.53;;;12.60;99.90;;;;;;5109316;28;20622;-86
2022/05/04 09:13:24;;;;;;;1.70;1.60;;;12.80;99.90;;;;;;5109733;28;20643;-86
2022/05/04 09:15:56;;;;;;;0.60;0.53;;;12.90;99.90;;;;;;5107660;28;20632;-85
2022/05/04 09:18:22;;;;;;;0.63;0.37;;;13.10;99.90;;;;;;5107106;28;20653;-85
2022/05/04 09:20:53;;;;;;;0.60;0.43;;;13.20;99.90;;;;;;5107108;28;20612;-85
2022/05/04 09:23:22;;;;;;;0.67;0.57;;;13.30;99.90;;;;;;5107641;28;20837;-85
2022/05/04 09:25:50;;;;;;;0.60;0.60;;;13.30;99.90;;;;;;5107350;28;21116;-86
2022/05/04 09:28:24;;;;;;;0.60;0.43;;;13.50;99.90;;;;;;5106620;28;20960;-85
2022/05/04 09:30:52;;;;;;;1.17;1.17;;;13.70;99.90;;;;;;5106588;28;20621;-85
2022/05/04 09:33:21;;;;;;;0.90;0.90;;;13.90;99.90;;;;;;5106697;28;20721;-85
2022/05/04 09:35:49;;;;;;;0.70;0.70;;;14.10;99.90;;;;;;5107260;28;21026;-85
2022/05/04 09:46:39;;;;;;;1.67;1.57;;;14.30;99.90;;;;;;5106352;28;20703;-85
2022/05/04 09:49:19;;;;;;;0.60;0.43;;;14.50;99.90;;;;;;5106555;28;20620;-85
2022/05/04 09:51:50;;;;;;;2.47;0.57;;;14.60;99.90;;;;;;5106873;28;20606;-84
2022/05/04 09:54:19;;;;;;;0.93;0.80;;;14.70;99.90;;;;;;5106045;28;20627;-85
2022/05/04 09:56:51;;;;;;;0.57;0.30;;;14.60;99.90;;;;;;5107202;28;20692;-86
2022/05/04 09:59:21;;;;;;;0.90;0.33;;;14.70;99.90;;;;;;5107003;28;20647;-85
2022/05/04 10:01:51;;;;;;;0.97;0.60;;;14.70;99.90;;;;;;5109102;28;20619;-86
2022/05/04 10:04:20;;;;;;;1.03;1.03;;;14.90;99.90;;;;;;5108002;28;21169;-85
2022/05/04 10:06:51;;;;;;;0.40;0.37;;;15.10;99.90;;;;;;5108437;27;20623;-84
2022/05/04 10:09:18;;;;;;;3.37;1.40;;;15.20;99.90;;;;;;5110149;28;20663;-85
2022/05/04 10:11:46;;;;;;;0.70;0.70;;;15.40;99.90;;;;;;5111283;28;20619;-84
2022/05/04 10:14:15;;;;;;;1.33;1.27;;;15.50;99.90;;;;;;5126122;27;20722;-86
2022/05/04 10:16:56;;;;;;;0.70;0.53;;;15.70;99.90;;;;;;5115103;28;20623;-85
2022/05/04 10:19:29;;;;;;;0.90;0.63;;;15.70;99.90;;;;;;5109987;28;20646;-84
2022/05/04 10:21:58;;;;;;;1.33;1.27;;;16.00;99.90;;;;;;5111158;28;20655;-84
2022/05/04 10:24:28;;;;;;;0.53;0.53;;;16.40;99.90;;;;;;5099920;28;20616;-84
2022/05/04 10:27:03;;;;;;;1.97;0.80;;;16.60;99.90;;;;;;5091943;28;21225;-84
2022/05/04 10:32:37;;;;;;;1.13;1.00;;;17.00;99.90;;;;;;5110574;28;20694;-86
2022/05/04 10:35:21;;;;;;;0.87;0.67;;;16.50;99.90;;;;;;5090319;28;20612;-84
2022/05/04 10:38:11;;;;;;;0.40;0.30;;;16.50;99.90;;;;;;5103008;28;20647;-84
2022/05/04 10:40:41;;;;;;;1.57;1.40;;;16.60;99.90;;;;;;5108732;28;20648;-85
2022/05/04 10:43:09;;;;;;;0.77;0.77;;;16.70;99.90;;;;;;5110258;28;20604;-85
2022/05/04 10:45:38;;;;;;;2.30;1.40;;;17.00;99.90;;;;;;5110023;28;20624;-84
2022/05/04 10:48:22;;;;;;;1.23;1.13;;;17.20;99.90;;;;;;5109914;28;20628;-84
2022/05/04 10:50:52;;;;;;;1.40;1.10;;;17.70;99.90;;;;;;5110075;28;20619;-84
2022/05/04 10:53:35;;;;;;;1.37;1.27;;;18.10;99.90;;;;;;5109019;28;20642;-85
2022/05/04 10:56:05;;;;;;;1.00;0.90;;;18.30;99.20;;;;;;5108792;28;20616;-84
2022/05/04 10:58:33;;;;;;;1.13;1.00;;;18.30;98.60;;;;;;5109362;28;20620;-84
2022/05/04 11:01:05;;;;;;;1.60;1.50;;;18.50;97.70;;;;;;5107418;28;20623;-85
2022/05/04 11:03:35;;;;;;;1.80;0.93;;;18.60;98.50;;;;;;5104736;27;20684;-84
2022/05/04 11:06:09;;;;;;;0.97;0.80;;;18.70;96.80;;;;;;5094706;28;20723;-85
2022/05/04 11:08:36;;;;;;;1.97;1.20;;;18.80;95.90;;;;;;5100450;28;21053;-85
2022/05/04 11:11:04;;;;;;;2.97;1.60;;;19.00;97.30;;;;;;5109758;28;20734;-85
2022/05/04 11:13:32;;;;;;;2.77;1.67;;;19.30;95.60;;;;;;5109046;28;20631;-84
2022/05/04 11:16:01;;;;;;;1.20;0.90;;;19.40;95.10;;;;;;5109585;28;20717;-84
2022/05/04 11:18:30;;;;;;;1.33;0.83;;;19.60;94.40;;;;;;5109537;28;20629;-85
2022/05/04 11:20:59;;;;;;;1.17;1.10;;;19.80;93.20;;;;;;5108774;28;20617;-84
2022/05/04 11:23:26;;;;;;;1.47;0.70;;;19.90;93.60;;;;;;5109165;28;21201;-84
2022/05/04 11:25:53;;;;;;;1.77;1.67;;;19.80;92.30;;;;;;5108342;28;20628;-84
2022/05/04 11:28:23;;;;;;;1.00;0.90;;;19.70;92.40;;;;;;5108090;28;20722;-84
2022/05/04 11:30:52;;;;;;;1.20;1.07;;;19.90;92.60;;;;;;5108221;27;20664;-84
2022/05/04 11:33:19;;;;;;;1.37;1.27;;;19.90;92.00;;;;;;5108699;28;20678;-85
2022/05/04 11:35:52;;;;;;;2.27;1.30;;;20.10;91.60;;;;;;5124143;27;20659;-84
2022/05/04 11:38:21;;;;;;;1.07;0.97;;;20.30;91.90;;;;;;5108775;28;20704;-85
2022/05/04 11:40:50;;;;;;;2.07;0.90;;;20.70;91.10;;;;;;5108765;28;21302;-84
2022/05/04 11:43:28;;;;;;;1.40;1.10;;;20.80;90.70;;;;;;5108519;27;20672;-84
2022/05/04 11:45:55;;;;;;;1.20;1.10;;;21.00;89.40;;;;;;5088845;28;21071;-84
2022/05/04 11:48:23;;;;;;;1.77;1.33;;;20.90;89.80;;;;;;5104153;28;20643;-84
2022/05/04 11:50:50;;;;;;;1.17;1.07;;;20.80;89.50;;;;;;5109473;28;20631;-85
2022/05/04 11:53:17;;;;;;;0.77;0.77;;;20.90;87.20;;;;;;5109159;28;20623;-84
2022/05/04 11:55:46;;;;;;;0.93;0.93;;;21.20;84.30;;;;;;5107279;28;21513;-85
2022/05/04 11:58:14;;;;;;;1.33;1.07;;;21.10;84.90;;;;;;5109002;28;20638;-84
2022/05/04 12:00:42;;;;;;;1.73;0.77;;;20.80;85.70;;;;;;5107326;28;20679;-84
2022/05/04 12:03:10;;;;;;;0.90;0.83;;;20.30;85.50;;;;;;5104089;28;21283;-85
2022/05/04 12:05:39;;;;;;;1.07;0.80;;;19.90;86.00;;;;;;5098642;28;20623;-85
2022/05/04 12:08:07;;;;;;;0.97;0.90;;;19.70;85.70;;;;;;5108729;28;21018;-84
2022/05/04 12:10:35;;;;;;;1.17;1.07;;;19.60;87.10;;;;;;5108853;28;20650;-84
2022/05/04 12:13:04;;;;;;;0.70;0.70;;;19.60;90.00;;;;;;5108965;28;20718;-84
2022/05/04 12:15:32;;;;;;;1.07;0.97;;;19.70;86.60;;;;;;5109200;28;20623;-84
2022/05/04 12:18:00;;;;;;;1.40;1.30;;;19.60;87.60;;;;;;5108789;28;20634;-84
2022/05/04 12:20:28;;;;;;;1.60;1.43;;;19.60;85.70;;;;;;5109397;28;20643;-83
2022/05/04 12:22:56;;;;;;;0.83;0.83;;;19.50;86.30;;;;;;5108882;28;20655;-84
2022/05/04 12:25:24;;;;;;;0.90;0.87;;;19.70;85.70;;;;;;5107660;28;20615;-83
2022/05/04 12:27:51;;;;;;;1.30;1.20;;;20.50;85.80;;;;;;5098434;28;21543;-85
2022/05/04 12:33:11;;;;;;;2.00;1.40;;;20.80;84.10;;;;;;5110331;28;20616;-83
2022/05/04 12:35:42;;;;;;;0.80;0.80;;;20.60;85.20;;;;;;5112080;28;21003;-85
2022/05/04 12:38:10;;;;;;;0.90;0.90;;;20.60;82.00;;;;;;5112566;27;20630;-84
2022/05/04 12:40:37;;;;;;;2.40;1.10;;;20.50;80.20;;;;;;5112293;28;20675;-84
2022/05/04 12:43:06;;;;;;;1.30;0.87;;;20.30;83.40;;;;;;5112241;28;20619;-84
2022/05/04 12:45:36;;;;;;;1.17;1.07;;;20.20;83.00;;;;;;5112795;28;20627;-85
2022/05/04 12:48:09;;;;;;;0.60;0.60;;;20.10;82.60;;;;;;5112482;28;20718;-84
2022/05/04 12:50:37;;;;;;;1.67;1.57;;;20.00;81.60;;;;;;5112506;28;20623;-83
2022/05/04 12:53:05;;;;;;;0.97;0.80;;;19.80;83.40;;;;;;5112620;28;20623;-83
2022/05/04 12:58:17;;;;;;;2.23;1.33;;;19.50;82.30;;;;;;5112611;28;20639;-83
2022/05/04 13:00:46;;;;;;;0.50;0.50;;;19.30;84.10;;;;;;5112494;28;20667;-84
2022/05/04 13:03:13;;;;;;;0.70;0.70;;;19.40;82.70;;;;;;5113548;28;20669;-84
2022/05/04 13:05:40;;;;;;;0.60;0.57;;;19.30;83.20;;;;;;5111419;28;20627;-83
2022/05/04 13:08:08;;;;;;;1.53;0.90;;;19.30;82.30;;;;;;5111674;28;21260;-83
2022/05/04 13:10:35;;;;;;;0.60;0.60;;;19.40;85.10;;;;;;5112142;28;20673;-84
2022/05/04 13:13:03;;;;;;;0.47;0.33;;;19.50;82.90;;;;;;5112096;28;20635;-84
2022/05/04 13:15:31;;;;;;;1.40;1.30;;;19.70;83.80;;;;;;5112588;28;20691;-84
2022/05/04 13:17:59;;;;;;;1.03;0.53;;;19.80;83.70;;;;;;5111885;28;20627;-84
2022/05/04 13:20:26;;;;;;;0.80;0.70;;;19.90;82.80;;;;;;5111550;28;20675;-83
2022/05/04 13:22:53;;;;;;;0.83;0.83;;;20.00;80.00;;;;;;5111475;28;20688;-83
2022/05/04 13:25:20;;;;;;;0.43;0.43;;;19.80;80.80;;;;;;5112235;28;20623;-84
2022/05/04 13:27:47;;;;;;;0.63;0.50;;;19.80;82.80;;;;;;5111530;28;21312;-84
2022/05/04 13:30:13;;;;;;;0.70;0.70;;;19.80;79.10;;;;;;5112643;28;21250;-83
2022/05/04 13:32:40;;;;;;;1.10;1.03;;;19.80;80.00;;;;;;5112256;28;20612;-83
2022/05/04 13:35:09;;;;;;;0.60;0.60;;;19.70;80.20;;;;;;5110765;28;21658;-83